sensor_id;sensor_type;location;lat;lon;timestamp;P1;durP1;ratioP1;P2;durP2;ratioP2
27333;SDS011;14817;57.104;-2.094;2022-11-15T00:00:12;34.85;;;19.00;;
27333;SDS011;14817;57.104;-2.094;2022-11-15T00:02:57;36.35;;;16.75;;
27333;SDS011;14817;57.104;-2.094;2022-11-15T00:05:43;36.80;;;19.10;;
27333;SDS011;14817;57.104;-2.094;2022-11-15T00:08:29;35.75;;;18.48;;
27333;SDS011;14817;57.104;-2.094;2022-11-15T00:11:18;34.42;;;20.13;;
27333;SDS011;14817;57.104;-2.094;2022-11-15T00:14:03;37.25;;;20.00;;
27333;SDS011;14817;57.104;-2.094;2022-11-15T00:16:49;33.60;;;18.27;;
27333;SDS011;14817;57.104;-2.094;2022-11-15T00:19:34;37.58;;;20.40;;
27333;SDS011;14817;57.104;-2.094;2022-11-15T00:22:20;38.30;;;19.95;;
27333;SDS011;14817;57.104;-2.094;2022-11-15T00:25:05;31.48;;;19.35;;
27333;SDS011;14817;57.104;-2.094;2022-11-15T00:27:56;37.13;;;20.00;;
27333;SDS011;14817;57.104;-2.094;2022-11-15T00:30:42;41.25;;;21.02;;
27333;SDS011;14817;57.104;-2.094;2022-11-15T00:33:30;38.92;;;21.02;;
27333;SDS011;14817;57.104;-2.094;2022-11-15T00:36:16;35.65;;;20.27;;
27333;SDS011;14817;57.104;-2.094;2022-11-15T00:39:05;39.58;;;21.42;;
27333;SDS011;14817;57.104;-2.094;2022-11-15T00:41:50;54.72;;;24.02;;
27333;SDS011;14817;57.104;-2.094;2022-11-15T00:44:36;40.88;;;21.27;;
27333;SDS011;14817;57.104;-2.094;2022-11-15T00:47:21;40.40;;;21.20;;
27333;SDS011;14817;57.104;-2.094;2022-11-15T00:50:06;45.72;;;20.85;;
27333;SDS011;14817;57.104;-2.094;2022-11-15T00:52:57;39.97;;;21.13;;
27333;SDS011;14817;57.104;-2.094;2022-11-15T00:55:43;41.50;;;19.88;;
27333;SDS011;14817;57.104;-2.094;2022-11-15T00:58:28;46.03;;;22.45;;
27333;SDS011;14817;57.104;-2.094;2022-11-15T01:01:13;45.17;;;21.45;;
27333;SDS011;14817;57.104;-2.094;2022-11-15T01:03:59;39.63;;;19.92;;
27333;SDS011;14817;57.104;-2.094;2022-11-15T01:06:45;31.50;;;18.30;;
27333;SDS011;14817;57.104;-2.094;2022-11-15T01:09:31;43.28;;;18.80;;
27333;SDS011;14817;57.104;-2.094;2022-11-15T01:12:16;38.95;;;19.88;;
27333;SDS011;14817;57.104;-2.094;2022-11-15T01:15:02;35.53;;;17.40;;
27333;SDS011;14817;57.104;-2.094;2022-11-15T01:17:48;34.90;;;18.02;;
27333;SDS011;14817;57.104;-2.094;2022-11-15T01:20:33;31.58;;;17.83;;
27333;SDS011;14817;57.104;-2.094;2022-11-15T01:23:18;36.63;;;19.38;;
27333;SDS011;14817;57.104;-2.094;2022-11-15T01:26:05;36.78;;;18.50;;
27333;SDS011;14817;57.104;-2.094;2022-11-15T01:28:51;30.40;;;17.40;;
27333;SDS011;14817;57.104;-2.094;2022-11-15T01:31:37;42.05;;;20.08;;
27333;SDS011;14817;57.104;-2.094;2022-11-15T01:34:22;35.00;;;18.48;;
27333;SDS011;14817;57.104;-2.094;2022-11-15T01:37:07;32.88;;;18.23;;
27333;SDS011;14817;57.104;-2.094;2022-11-15T01:39:53;43.38;;;19.85;;
27333;SDS011;14817;57.104;-2.094;2022-11-15T01:42:38;37.78;;;20.02;;
27333;SDS011;14817;57.104;-2.094;2022-11-15T01:45:23;34.67;;;18.30;;
27333;SDS011;14817;57.104;-2.094;2022-11-15T01:48:09;35.67;;;18.55;;
27333;SDS011;14817;57.104;-2.094;2022-11-15T01:50:56;40.50;;;17.65;;
27333;SDS011;14817;57.104;-2.094;2022-11-15T01:53:42;44.42;;;21.45;;
27333;SDS011;14817;57.104;-2.094;2022-11-15T01:56:32;40.50;;;21.13;;
27333;SDS011;14817;57.104;-2.094;2022-11-15T01:59:28;41.22;;;20.83;;
27333;SDS011;14817;57.104;-2.094;2022-11-15T02:02:13;35.83;;;21.25;;
27333;SDS011;14817;57.104;-2.094;2022-11-15T02:04:59;33.38;;;19.20;;
27333;SDS011;14817;57.104;-2.094;2022-11-15T02:07:45;35.83;;;19.83;;
27333;SDS011;14817;57.104;-2.094;2022-11-15T02:10:32;37.60;;;20.15;;
27333;SDS011;14817;57.104;-2.094;2022-11-15T02:13:17;40.08;;;19.67;;
27333;SDS011;14817;57.104;-2.094;2022-11-15T02:22:22;37.58;;;20.08;;
27333;SDS011;14817;57.104;-2.094;2022-11-15T02:35:02;37.38;;;20.45;;
27333;SDS011;14817;57.104;-2.094;2022-11-15T02:43:53;37.65;;;20.77;;
27333;SDS011;14817;57.104;-2.094;2022-11-15T02:47:02;34.05;;;19.27;;
27333;SDS011;14817;57.104;-2.094;2022-11-15T02:50:21;34.83;;;16.67;;
27333;SDS011;14817;57.104;-2.094;2022-11-15T02:53:08;27.50;;;14.68;;
27333;SDS011;14817;57.104;-2.094;2022-11-15T02:55:54;33.50;;;15.88;;
27333;SDS011;14817;57.104;-2.094;2022-11-15T03:04:45;33.63;;;16.13;;
27333;SDS011;14817;57.104;-2.094;2022-11-15T03:13:52;35.92;;;15.68;;
27333;SDS011;14817;57.104;-2.094;2022-11-15T03:19:56;38.00;;;16.85;;
27333;SDS011;14817;57.104;-2.094;2022-11-15T03:22:44;24.02;;;14.30;;
27333;SDS011;14817;57.104;-2.094;2022-11-15T03:25:32;41.28;;;16.98;;
27333;SDS011;14817;57.104;-2.094;2022-11-15T03:28:44;37.55;;;17.00;;
27333;SDS011;14817;57.104;-2.094;2022-11-15T03:31:36;34.20;;;15.13;;
27333;SDS011;14817;57.104;-2.094;2022-11-15T03:41:15;36.45;;;17.70;;
27333;SDS011;14817;57.104;-2.094;2022-11-15T03:43:43;37.65;;;16.90;;
27333;SDS011;14817;57.104;-2.094;2022-11-15T03:46:39;35.75;;;15.57;;
27333;SDS011;14817;57.104;-2.094;2022-11-15T03:49:33;34.85;;;17.45;;
27333;SDS011;14817;57.104;-2.094;2022-11-15T03:52:21;30.52;;;17.00;;
27333;SDS011;14817;57.104;-2.094;2022-11-15T03:55:09;36.47;;;18.27;;
27333;SDS011;14817;57.104;-2.094;2022-11-15T03:57:58;41.75;;;20.05;;
27333;SDS011;14817;57.104;-2.094;2022-11-15T04:00:44;40.88;;;18.75;;
27333;SDS011;14817;57.104;-2.094;2022-11-15T04:03:30;44.15;;;20.30;;
27333;SDS011;14817;57.104;-2.094;2022-11-15T04:06:15;34.38;;;20.02;;
27333;SDS011;14817;57.104;-2.094;2022-11-15T04:09:01;38.75;;;19.80;;
27333;SDS011;14817;57.104;-2.094;2022-11-15T04:11:46;36.78;;;22.15;;
27333;SDS011;14817;57.104;-2.094;2022-11-15T04:14:31;41.50;;;21.00;;
27333;SDS011;14817;57.104;-2.094;2022-11-15T04:17:17;39.50;;;21.40;;
27333;SDS011;14817;57.104;-2.094;2022-11-15T04:20:06;41.35;;;20.58;;
27333;SDS011;14817;57.104;-2.094;2022-11-15T04:26:17;41.47;;;23.05;;
27333;SDS011;14817;57.104;-2.094;2022-11-15T04:29:04;44.30;;;22.40;;
27333;SDS011;14817;57.104;-2.094;2022-11-15T04:32:07;38.45;;;22.25;;
27333;SDS011;14817;57.104;-2.094;2022-11-15T04:34:53;51.67;;;21.60;;
27333;SDS011;14817;57.104;-2.094;2022-11-15T04:37:38;42.53;;;20.52;;
27333;SDS011;14817;57.104;-2.094;2022-11-15T04:40:26;41.83;;;21.85;;
27333;SDS011;14817;57.104;-2.094;2022-11-15T04:43:12;38.60;;;20.45;;
27333;SDS011;14817;57.104;-2.094;2022-11-15T04:45:57;53.10;;;22.67;;
27333;SDS011;14817;57.104;-2.094;2022-11-15T04:48:42;40.95;;;21.50;;
27333;SDS011;14817;57.104;-2.094;2022-11-15T04:51:27;44.03;;;21.50;;
27333;SDS011;14817;57.104;-2.094;2022-11-15T04:54:13;47.22;;;24.02;;
27333;SDS011;14817;57.104;-2.094;2022-11-15T04:56:58;40.00;;;22.02;;
27333;SDS011;14817;57.104;-2.094;2022-11-15T04:59:44;49.38;;;26.13;;
27333;SDS011;14817;57.104;-2.094;2022-11-15T05:02:29;48.33;;;24.33;;
27333;SDS011;14817;57.104;-2.094;2022-11-15T05:05:34;47.13;;;24.27;;
27333;SDS011;14817;57.104;-2.094;2022-11-15T05:08:19;52.17;;;27.48;;
27333;SDS011;14817;57.104;-2.094;2022-11-15T05:11:05;43.67;;;25.02;;
27333;SDS011;14817;57.104;-2.094;2022-11-15T05:13:50;54.70;;;25.90;;
27333;SDS011;14817;57.104;-2.094;2022-11-15T05:16:36;52.20;;;25.10;;
27333;SDS011;14817;57.104;-2.094;2022-11-15T05:19:21;53.90;;;26.95;;
27333;SDS011;14817;57.104;-2.094;2022-11-15T05:22:06;50.45;;;26.95;;
27333;SDS011;14817;57.104;-2.094;2022-11-15T05:24:52;46.50;;;25.30;;
27333;SDS011;14817;57.104;-2.094;2022-11-15T05:27:37;54.67;;;26.25;;
27333;SDS011;14817;57.104;-2.094;2022-11-15T05:30:22;45.22;;;24.83;;
27333;SDS011;14817;57.104;-2.094;2022-11-15T05:33:08;48.75;;;26.83;;
27333;SDS011;14817;57.104;-2.094;2022-11-15T05:36:04;51.25;;;27.67;;
27333;SDS011;14817;57.104;-2.094;2022-11-15T05:38:54;48.75;;;26.30;;
27333;SDS011;14817;57.104;-2.094;2022-11-15T05:41:41;54.17;;;27.77;;
27333;SDS011;14817;57.104;-2.094;2022-11-15T05:44:33;57.42;;;28.65;;
27333;SDS011;14817;57.104;-2.094;2022-11-15T05:47:21;54.70;;;29.98;;
27333;SDS011;14817;57.104;-2.094;2022-11-15T05:50:11;55.67;;;28.48;;
27333;SDS011;14817;57.104;-2.094;2022-11-15T05:52:59;64.90;;;31.73;;
27333;SDS011;14817;57.104;-2.094;2022-11-15T05:55:49;52.75;;;28.27;;
27333;SDS011;14817;57.104;-2.094;2022-11-15T05:58:34;50.22;;;28.83;;
27333;SDS011;14817;57.104;-2.094;2022-11-15T06:01:20;52.15;;;30.20;;
27333;SDS011;14817;57.104;-2.094;2022-11-15T06:04:05;50.35;;;27.67;;
27333;SDS011;14817;57.104;-2.094;2022-11-15T06:06:51;61.80;;;30.77;;
27333;SDS011;14817;57.104;-2.094;2022-11-15T06:09:36;61.25;;;31.10;;
27333;SDS011;14817;57.104;-2.094;2022-11-15T06:12:21;47.38;;;27.15;;
27333;SDS011;14817;57.104;-2.094;2022-11-15T06:15:07;56.95;;;27.70;;
27333;SDS011;14817;57.104;-2.094;2022-11-15T06:17:55;54.15;;;28.60;;
27333;SDS011;14817;57.104;-2.094;2022-11-15T06:20:42;53.92;;;28.42;;
27333;SDS011;14817;57.104;-2.094;2022-11-15T06:23:28;60.78;;;30.52;;
27333;SDS011;14817;57.104;-2.094;2022-11-15T06:26:17;53.83;;;29.95;;
27333;SDS011;14817;57.104;-2.094;2022-11-15T06:29:02;49.75;;;28.95;;
27333;SDS011;14817;57.104;-2.094;2022-11-15T06:31:49;49.92;;;28.73;;
27333;SDS011;14817;57.104;-2.094;2022-11-15T06:34:34;51.13;;;30.20;;
27333;SDS011;14817;57.104;-2.094;2022-11-15T06:37:20;53.92;;;29.80;;
27333;SDS011;14817;57.104;-2.094;2022-11-15T06:40:06;53.78;;;29.30;;
27333;SDS011;14817;57.104;-2.094;2022-11-15T06:42:57;56.55;;;28.67;;
27333;SDS011;14817;57.104;-2.094;2022-11-15T06:45:44;59.05;;;29.70;;
27333;SDS011;14817;57.104;-2.094;2022-11-15T06:48:29;50.22;;;27.20;;
27333;SDS011;14817;57.104;-2.094;2022-11-15T06:51:16;50.05;;;26.33;;
27333;SDS011;14817;57.104;-2.094;2022-11-15T06:54:01;53.58;;;27.88;;
27333;SDS011;14817;57.104;-2.094;2022-11-15T06:56:46;52.13;;;27.52;;
27333;SDS011;14817;57.104;-2.094;2022-11-15T06:59:32;53.47;;;25.45;;
27333;SDS011;14817;57.104;-2.094;2022-11-15T07:02:24;56.28;;;29.02;;
27333;SDS011;14817;57.104;-2.094;2022-11-15T07:05:09;54.90;;;26.25;;
27333;SDS011;14817;57.104;-2.094;2022-11-15T07:07:55;45.60;;;24.17;;
27333;SDS011;14817;57.104;-2.094;2022-11-15T07:10:42;45.80;;;23.20;;
27333;SDS011;14817;57.104;-2.094;2022-11-15T07:13:28;55.60;;;24.13;;
27333;SDS011;14817;57.104;-2.094;2022-11-15T07:16:19;51.50;;;24.63;;
27333;SDS011;14817;57.104;-2.094;2022-11-15T07:19:04;47.95;;;25.33;;
27333;SDS011;14817;57.104;-2.094;2022-11-15T07:21:49;59.55;;;26.48;;
27333;SDS011;14817;57.104;-2.094;2022-11-15T07:24:34;56.67;;;28.40;;
27333;SDS011;14817;57.104;-2.094;2022-11-15T07:27:20;54.05;;;25.65;;
27333;SDS011;14817;57.104;-2.094;2022-11-15T07:30:05;51.38;;;24.25;;
27333;SDS011;14817;57.104;-2.094;2022-11-15T07:32:57;57.40;;;26.10;;
27333;SDS011;14817;57.104;-2.094;2022-11-15T07:35:44;52.33;;;25.80;;
27333;SDS011;14817;57.104;-2.094;2022-11-15T07:38:33;61.20;;;27.40;;
27333;SDS011;14817;57.104;-2.094;2022-11-15T07:41:26;51.22;;;25.60;;
27333;SDS011;14817;57.104;-2.094;2022-11-15T07:44:12;52.75;;;26.00;;
27333;SDS011;14817;57.104;-2.094;2022-11-15T07:46:57;56.00;;;26.92;;
27333;SDS011;14817;57.104;-2.094;2022-11-15T07:49:43;53.35;;;24.23;;
27333;SDS011;14817;57.104;-2.094;2022-11-15T07:52:28;51.25;;;25.67;;
27333;SDS011;14817;57.104;-2.094;2022-11-15T07:55:13;58.95;;;25.00;;
27333;SDS011;14817;57.104;-2.094;2022-11-15T07:58:03;46.40;;;24.20;;
27333;SDS011;14817;57.104;-2.094;2022-11-15T08:00:50;50.40;;;24.95;;
27333;SDS011;14817;57.104;-2.094;2022-11-15T08:03:35;51.42;;;24.80;;
27333;SDS011;14817;57.104;-2.094;2022-11-15T08:06:21;46.22;;;25.02;;
27333;SDS011;14817;57.104;-2.094;2022-11-15T08:09:06;58.78;;;25.92;;
27333;SDS011;14817;57.104;-2.094;2022-11-15T08:11:51;57.30;;;27.92;;
27333;SDS011;14817;57.104;-2.094;2022-11-15T08:14:36;49.20;;;24.52;;
27333;SDS011;14817;57.104;-2.094;2022-11-15T08:17:22;51.97;;;24.50;;
27333;SDS011;14817;57.104;-2.094;2022-11-15T08:20:09;66.75;;;28.75;;
27333;SDS011;14817;57.104;-2.094;2022-11-15T08:22:55;57.45;;;28.60;;
27333;SDS011;14817;57.104;-2.094;2022-11-15T08:25:44;54.60;;;28.25;;
27333;SDS011;14817;57.104;-2.094;2022-11-15T08:28:31;74.18;;;27.45;;
27333;SDS011;14817;57.104;-2.094;2022-11-15T08:31:17;59.03;;;28.75;;
27333;SDS011;14817;57.104;-2.094;2022-11-15T08:34:03;55.80;;;27.60;;
27333;SDS011;14817;57.104;-2.094;2022-11-15T08:36:50;66.65;;;29.55;;
27333;SDS011;14817;57.104;-2.094;2022-11-15T08:39:35;58.00;;;28.80;;
27333;SDS011;14817;57.104;-2.094;2022-11-15T08:42:21;67.85;;;29.40;;
27333;SDS011;14817;57.104;-2.094;2022-11-15T08:45:07;61.05;;;30.27;;
27333;SDS011;14817;57.104;-2.094;2022-11-15T08:47:53;55.78;;;26.58;;
27333;SDS011;14817;57.104;-2.094;2022-11-15T08:50:38;67.78;;;29.05;;
27333;SDS011;14817;57.104;-2.094;2022-11-15T08:53:24;56.92;;;27.42;;
27333;SDS011;14817;57.104;-2.094;2022-11-15T08:56:10;67.85;;;29.55;;
27333;SDS011;14817;57.104;-2.094;2022-11-15T08:58:57;57.03;;;27.08;;
27333;SDS011;14817;57.104;-2.094;2022-11-15T09:01:42;51.63;;;27.30;;
27333;SDS011;14817;57.104;-2.094;2022-11-15T09:04:27;58.10;;;27.15;;
27333;SDS011;14817;57.104;-2.094;2022-11-15T09:07:13;69.65;;;28.17;;
27333;SDS011;14817;57.104;-2.094;2022-11-15T09:09:58;63.03;;;28.50;;
27333;SDS011;14817;57.104;-2.094;2022-11-15T09:12:44;54.65;;;27.45;;
27333;SDS011;14817;57.104;-2.094;2022-11-15T09:15:33;60.38;;;28.80;;
27333;SDS011;14817;57.104;-2.094;2022-11-15T09:18:18;74.70;;;31.70;;
27333;SDS011;14817;57.104;-2.094;2022-11-15T09:21:06;64.45;;;28.70;;
27333;SDS011;14817;57.104;-2.094;2022-11-15T09:23:51;60.65;;;28.25;;
27333;SDS011;14817;57.104;-2.094;2022-11-15T09:26:37;54.80;;;28.48;;
27333;SDS011;14817;57.104;-2.094;2022-11-15T09:29:23;64.82;;;31.08;;
27333;SDS011;14817;57.104;-2.094;2022-11-15T09:32:08;61.67;;;29.65;;
27333;SDS011;14817;57.104;-2.094;2022-11-15T09:34:54;52.83;;;27.30;;
27333;SDS011;14817;57.104;-2.094;2022-11-15T09:37:39;60.15;;;26.20;;
27333;SDS011;14817;57.104;-2.094;2022-11-15T09:40:24;58.25;;;26.02;;
27333;SDS011;14817;57.104;-2.094;2022-11-15T09:43:46;47.38;;;23.83;;
27333;SDS011;14817;57.104;-2.094;2022-11-15T09:50:14;46.15;;;23.80;;
27333;SDS011;14817;57.104;-2.094;2022-11-15T09:52:44;55.47;;;24.85;;
27333;SDS011;14817;57.104;-2.094;2022-11-15T09:55:12;57.58;;;24.80;;
27333;SDS011;14817;57.104;-2.094;2022-11-15T09:57:55;49.63;;;24.40;;
27333;SDS011;14817;57.104;-2.094;2022-11-15T10:00:32;50.15;;;26.13;;
27333;SDS011;14817;57.104;-2.094;2022-11-15T10:03:16;58.45;;;26.50;;
27333;SDS011;14817;57.104;-2.094;2022-11-15T10:05:49;48.45;;;25.00;;
27333;SDS011;14817;57.104;-2.094;2022-11-15T10:11:04;47.45;;;23.88;;
27333;SDS011;14817;57.104;-2.094;2022-11-15T10:14:13;53.10;;;23.83;;
27333;SDS011;14817;57.104;-2.094;2022-11-15T10:17:06;56.65;;;24.88;;
27333;SDS011;14817;57.104;-2.094;2022-11-15T10:25:26;54.90;;;25.08;;
27333;SDS011;14817;57.104;-2.094;2022-11-15T10:27:54;60.00;;;26.35;;
27333;SDS011;14817;57.104;-2.094;2022-11-15T10:30:37;49.25;;;25.13;;
27333;SDS011;14817;57.104;-2.094;2022-11-15T10:33:13;53.58;;;26.85;;
27333;SDS011;14817;57.104;-2.094;2022-11-15T10:47:20;58.40;;;25.58;;
27333;SDS011;14817;57.104;-2.094;2022-11-15T10:52:24;55.97;;;24.10;;
27333;SDS011;14817;57.104;-2.094;2022-11-15T10:55:00;47.42;;;24.08;;
27333;SDS011;14817;57.104;-2.094;2022-11-15T10:57:32;49.60;;;23.38;;
27333;SDS011;14817;57.104;-2.094;2022-11-15T11:02:57;45.08;;;21.52;;
27333;SDS011;14817;57.104;-2.094;2022-11-15T11:05:33;43.38;;;18.70;;
27333;SDS011;14817;57.104;-2.094;2022-11-15T11:10:38;47.88;;;22.88;;
27333;SDS011;14817;57.104;-2.094;2022-11-15T11:13:35;47.13;;;22.48;;
27333;SDS011;14817;57.104;-2.094;2022-11-15T11:16:14;51.85;;;19.92;;
27333;SDS011;14817;57.104;-2.094;2022-11-15T11:21:46;47.80;;;19.15;;
27333;SDS011;14817;57.104;-2.094;2022-11-15T11:27:32;39.75;;;16.05;;
27333;SDS011;14817;57.104;-2.094;2022-11-15T11:38:19;24.58;;;10.23;;
27333;SDS011;14817;57.104;-2.094;2022-11-15T11:46:19;22.23;;;5.90;;
27333;SDS011;14817;57.104;-2.094;2022-11-15T11:49:03;29.95;;;6.90;;
27333;SDS011;14817;57.104;-2.094;2022-11-15T11:51:38;30.88;;;6.53;;
27333;SDS011;14817;57.104;-2.094;2022-11-15T11:54:12;19.92;;;4.68;;
27333;SDS011;14817;57.104;-2.094;2022-11-15T11:56:46;22.70;;;4.43;;
27333;SDS011;14817;57.104;-2.094;2022-11-15T12:01:43;21.30;;;4.25;;
27333;SDS011;14817;57.104;-2.094;2022-11-15T12:04:13;19.90;;;4.15;;
27333;SDS011;14817;57.104;-2.094;2022-11-15T12:09:35;11.00;;;3.05;;
27333;SDS011;14817;57.104;-2.094;2022-11-15T12:12:17;19.58;;;4.75;;
27333;SDS011;14817;57.104;-2.094;2022-11-15T12:14:46;28.42;;;7.03;;
27333;SDS011;14817;57.104;-2.094;2022-11-15T12:17:17;17.40;;;4.90;;
27333;SDS011;14817;57.104;-2.094;2022-11-15T12:19:49;17.85;;;5.13;;
27333;SDS011;14817;57.104;-2.094;2022-11-15T12:22:20;19.02;;;4.45;;
27333;SDS011;14817;57.104;-2.094;2022-11-15T12:24:56;24.73;;;6.45;;
27333;SDS011;14817;57.104;-2.094;2022-11-15T12:27:41;16.98;;;4.28;;
27333;SDS011;14817;57.104;-2.094;2022-11-15T12:30:15;12.80;;;3.65;;
27333;SDS011;14817;57.104;-2.094;2022-11-15T12:32:54;15.60;;;4.18;;
27333;SDS011;14817;57.104;-2.094;2022-11-15T12:35:36;11.55;;;3.33;;
27333;SDS011;14817;57.104;-2.094;2022-11-15T12:38:09;21.70;;;5.00;;
27333;SDS011;14817;57.104;-2.094;2022-11-15T12:40:37;16.98;;;4.10;;
27333;SDS011;14817;57.104;-2.094;2022-11-15T12:43:43;23.13;;;4.85;;
27333;SDS011;14817;57.104;-2.094;2022-11-15T12:46:20;15.20;;;3.55;;
27333;SDS011;14817;57.104;-2.094;2022-11-15T12:48:50;27.85;;;4.95;;
27333;SDS011;14817;57.104;-2.094;2022-11-15T12:51:21;14.27;;;4.15;;
27333;SDS011;14817;57.104;-2.094;2022-11-15T13:02:39;20.63;;;4.68;;
27333;SDS011;14817;57.104;-2.094;2022-11-15T13:08:02;22.30;;;4.32;;
27333;SDS011;14817;57.104;-2.094;2022-11-15T13:10:30;19.77;;;4.68;;
27333;SDS011;14817;57.104;-2.094;2022-11-15T13:13:01;22.50;;;5.75;;
27333;SDS011;14817;57.104;-2.094;2022-11-15T13:18:29;24.80;;;5.20;;
27333;SDS011;14817;57.104;-2.094;2022-11-15T13:21:00;20.88;;;5.13;;
27333;SDS011;14817;57.104;-2.094;2022-11-15T13:23:28;16.17;;;5.18;;
27333;SDS011;14817;57.104;-2.094;2022-11-15T13:28:46;22.98;;;6.07;;
27333;SDS011;14817;57.104;-2.094;2022-11-15T13:33:57;33.00;;;6.32;;
27333;SDS011;14817;57.104;-2.094;2022-11-15T13:36:29;22.73;;;6.35;;
27333;SDS011;14817;57.104;-2.094;2022-11-15T13:39:03;23.73;;;6.00;;
27333;SDS011;14817;57.104;-2.094;2022-11-15T13:41:33;31.48;;;7.85;;
27333;SDS011;14817;57.104;-2.094;2022-11-15T13:44:01;28.00;;;6.38;;
27333;SDS011;14817;57.104;-2.094;2022-11-15T13:46:30;29.05;;;6.25;;
27333;SDS011;14817;57.104;-2.094;2022-11-15T13:49:03;27.00;;;6.57;;
27333;SDS011;14817;57.104;-2.094;2022-11-15T13:51:39;21.33;;;5.93;;
27333;SDS011;14817;57.104;-2.094;2022-11-15T13:56:48;26.70;;;6.28;;
27333;SDS011;14817;57.104;-2.094;2022-11-15T13:59:24;25.67;;;5.78;;
27333;SDS011;14817;57.104;-2.094;2022-11-15T14:02:01;30.67;;;5.57;;
27333;SDS011;14817;57.104;-2.094;2022-11-15T14:04:38;30.65;;;5.30;;
27333;SDS011;14817;57.104;-2.094;2022-11-15T14:07:15;34.22;;;5.47;;
27333;SDS011;14817;57.104;-2.094;2022-11-15T14:09:47;27.70;;;6.47;;
27333;SDS011;14817;57.104;-2.094;2022-11-15T14:12:29;29.30;;;5.80;;
27333;SDS011;14817;57.104;-2.094;2022-11-15T14:15:01;22.77;;;5.38;;
27333;SDS011;14817;57.104;-2.094;2022-11-15T14:17:45;28.63;;;5.75;;
27333;SDS011;14817;57.104;-2.094;2022-11-15T14:20:58;29.67;;;5.40;;
27333;SDS011;14817;57.104;-2.094;2022-11-15T14:23:18;46.72;;;6.57;;
27333;SDS011;14817;57.104;-2.094;2022-11-15T14:25:55;29.92;;;5.63;;
27333;SDS011;14817;57.104;-2.094;2022-11-15T14:30:51;40.03;;;7.10;;
27333;SDS011;14817;57.104;-2.094;2022-11-15T14:33:30;41.63;;;6.90;;
27333;SDS011;14817;57.104;-2.094;2022-11-15T14:36:21;25.75;;;5.10;;
27333;SDS011;14817;57.104;-2.094;2022-11-15T14:38:48;41.75;;;6.30;;
27333;SDS011;14817;57.104;-2.094;2022-11-15T14:41:22;28.88;;;5.30;;
27333;SDS011;14817;57.104;-2.094;2022-11-15T14:43:51;39.28;;;7.60;;
27333;SDS011;14817;57.104;-2.094;2022-11-15T14:46:18;34.80;;;6.22;;
27333;SDS011;14817;57.104;-2.094;2022-11-15T14:48:45;30.00;;;5.47;;
27333;SDS011;14817;57.104;-2.094;2022-11-15T14:51:16;33.90;;;6.22;;
27333;SDS011;14817;57.104;-2.094;2022-11-15T14:53:44;36.42;;;6.10;;
27333;SDS011;14817;57.104;-2.094;2022-11-15T14:56:11;50.13;;;6.63;;
27333;SDS011;14817;57.104;-2.094;2022-11-15T14:58:39;41.45;;;6.35;;
27333;SDS011;14817;57.104;-2.094;2022-11-15T15:01:13;38.13;;;6.47;;
27333;SDS011;14817;57.104;-2.094;2022-11-15T15:03:40;33.67;;;5.78;;
27333;SDS011;14817;57.104;-2.094;2022-11-15T15:06:07;44.00;;;7.35;;
27333;SDS011;14817;57.104;-2.094;2022-11-15T15:08:42;38.88;;;5.63;;
27333;SDS011;14817;57.104;-2.094;2022-11-15T15:11:13;34.75;;;6.10;;
27333;SDS011;14817;57.104;-2.094;2022-11-15T15:13:43;36.58;;;6.47;;
27333;SDS011;14817;57.104;-2.094;2022-11-15T15:16:09;24.75;;;5.53;;
27333;SDS011;14817;57.104;-2.094;2022-11-15T15:18:36;33.97;;;7.07;;
27333;SDS011;14817;57.104;-2.094;2022-11-15T15:21:04;37.40;;;6.40;;
27333;SDS011;14817;57.104;-2.094;2022-11-15T15:23:50;43.72;;;6.13;;
27333;SDS011;14817;57.104;-2.094;2022-11-15T15:26:20;32.10;;;5.90;;
27333;SDS011;14817;57.104;-2.094;2022-11-15T15:28:47;33.67;;;5.57;;
27333;SDS011;14817;57.104;-2.094;2022-11-15T15:31:15;47.00;;;5.82;;
27333;SDS011;14817;57.104;-2.094;2022-11-15T15:33:41;31.05;;;5.65;;
27333;SDS011;14817;57.104;-2.094;2022-11-15T15:36:12;41.53;;;7.65;;
27333;SDS011;14817;57.104;-2.094;2022-11-15T15:38:40;40.25;;;6.68;;
27333;SDS011;14817;57.104;-2.094;2022-11-15T15:41:14;46.53;;;7.57;;
27333;SDS011;14817;57.104;-2.094;2022-11-15T15:43:41;46.63;;;6.28;;
27333;SDS011;14817;57.104;-2.094;2022-11-15T15:46:12;50.38;;;7.60;;
27333;SDS011;14817;57.104;-2.094;2022-11-15T15:48:41;37.45;;;6.32;;
27333;SDS011;14817;57.104;-2.094;2022-11-15T15:51:08;41.28;;;6.65;;
27333;SDS011;14817;57.104;-2.094;2022-11-15T15:53:45;46.40;;;7.13;;
27333;SDS011;14817;57.104;-2.094;2022-11-15T15:56:12;42.63;;;7.50;;
27333;SDS011;14817;57.104;-2.094;2022-11-15T15:58:38;42.38;;;6.65;;
27333;SDS011;14817;57.104;-2.094;2022-11-15T16:01:05;39.90;;;7.57;;
27333;SDS011;14817;57.104;-2.094;2022-11-15T16:03:32;46.08;;;7.97;;
27333;SDS011;14817;57.104;-2.094;2022-11-15T16:05:59;39.00;;;7.47;;
27333;SDS011;14817;57.104;-2.094;2022-11-15T16:08:26;46.03;;;7.63;;
27333;SDS011;14817;57.104;-2.094;2022-11-15T16:11:03;45.50;;;8.18;;
27333;SDS011;14817;57.104;-2.094;2022-11-15T16:13:32;34.72;;;6.68;;
27333;SDS011;14817;57.104;-2.094;2022-11-15T16:15:59;30.33;;;4.78;;
27333;SDS011;14817;57.104;-2.094;2022-11-15T16:18:26;41.38;;;6.70;;
27333;SDS011;14817;57.104;-2.094;2022-11-15T16:20:53;42.65;;;6.13;;
27333;SDS011;14817;57.104;-2.094;2022-11-15T16:23:23;46.67;;;6.82;;
27333;SDS011;14817;57.104;-2.094;2022-11-15T16:25:51;55.42;;;7.03;;
27333;SDS011;14817;57.104;-2.094;2022-11-15T16:28:26;52.35;;;9.18;;
27333;SDS011;14817;57.104;-2.094;2022-11-15T16:30:59;40.20;;;6.90;;
27333;SDS011;14817;57.104;-2.094;2022-11-15T16:33:27;47.92;;;7.45;;
27333;SDS011;14817;57.104;-2.094;2022-11-15T16:35:54;48.20;;;7.13;;
27333;SDS011;14817;57.104;-2.094;2022-11-15T16:38:21;45.38;;;7.03;;
27333;SDS011;14817;57.104;-2.094;2022-11-15T16:40:48;56.97;;;9.63;;
27333;SDS011;14817;57.104;-2.094;2022-11-15T16:43:15;44.88;;;7.82;;
27333;SDS011;14817;57.104;-2.094;2022-11-15T16:45:42;38.28;;;6.38;;
27333;SDS011;14817;57.104;-2.094;2022-11-15T16:48:23;46.95;;;6.20;;
27333;SDS011;14817;57.104;-2.094;2022-11-15T16:50:55;44.97;;;7.43;;
27333;SDS011;14817;57.104;-2.094;2022-11-15T16:53:23;50.30;;;7.82;;
27333;SDS011;14817;57.104;-2.094;2022-11-15T16:55:51;58.97;;;8.95;;
27333;SDS011;14817;57.104;-2.094;2022-11-15T16:58:17;42.10;;;9.85;;
27333;SDS011;14817;57.104;-2.094;2022-11-15T17:00:44;44.13;;;8.65;;
27333;SDS011;14817;57.104;-2.094;2022-11-15T17:03:11;46.72;;;8.18;;
27333;SDS011;14817;57.104;-2.094;2022-11-15T17:05:38;46.00;;;7.88;;
27333;SDS011;14817;57.104;-2.094;2022-11-15T17:08:05;39.10;;;6.10;;
27333;SDS011;14817;57.104;-2.094;2022-11-15T17:10:31;37.75;;;8.05;;
27333;SDS011;14817;57.104;-2.094;2022-11-15T17:12:58;45.38;;;6.80;;
27333;SDS011;14817;57.104;-2.094;2022-11-15T17:15:25;50.92;;;7.85;;
27333;SDS011;14817;57.104;-2.094;2022-11-15T17:17:52;30.70;;;5.00;;
27333;SDS011;14817;57.104;-2.094;2022-11-15T17:20:22;46.10;;;9.02;;
27333;SDS011;14817;57.104;-2.094;2022-11-15T17:22:50;53.22;;;8.20;;
27333;SDS011;14817;57.104;-2.094;2022-11-15T17:25:18;36.60;;;6.20;;
27333;SDS011;14817;57.104;-2.094;2022-11-15T17:27:45;50.13;;;7.57;;
27333;SDS011;14817;57.104;-2.094;2022-11-15T17:30:13;63.42;;;7.40;;
27333;SDS011;14817;57.104;-2.094;2022-11-15T17:32:45;39.30;;;5.80;;
27333;SDS011;14817;57.104;-2.094;2022-11-15T17:35:15;57.30;;;7.63;;
27333;SDS011;14817;57.104;-2.094;2022-11-15T17:37:42;46.40;;;6.55;;
27333;SDS011;14817;57.104;-2.094;2022-11-15T17:40:09;46.50;;;10.98;;